首页
METAR-TAF:

METAR-TAF

机场 :

下诺夫哥罗德, 俄罗斯

纬度: 56-19-48N, 经度: 044-00E, 海拔: 78米

当前天气观测

该预报发布于43分钟前的02:00 UTC
风速2节,风向多变
温度 13°C
湿度 94%
气压 1012 hPa
能见度10公里或以上
阴天层高于1300英尺

METAR: UWGG 270200Z VRB01MPS 9999 OVC013 13/12 Q1012 R36R/090070 NOSIG

时间: 05:43 (02:43 UTC)

预报

该预报发布于44分钟前的01:59 UTC
预报有效从27日的 03点(UTC)到 28日的 03点(UTC)
风速6节,风向西转西北
能见度10公里或以上
多云层高于1100英尺
成为
从 27日的 09点(UTC)到 27日的 11点(UTC)
风速6节,风向
短暂存在
从 27日的 11点(UTC)到 28日的 03点(UTC)
风速10节,风向东转东南,有时为23节阵风

TAF: UWGG 270159Z 2703/2803 30003MPS 9999 BKN011 TX21/2713Z TN11/2803Z BECMG 2709/2711 10003MPS TEMPO 2711/2803 12005G12MPS

超过4000个机场的气象观测和天气预报(METAR&TAF报告)。

可查询的气象台以黄色和红色小点在地图上表示。

将鼠标移到小点上方,可查看气象台名称。

然后点击查看天气观测和预报。

如需切换地图:点击带黑十字的绿色按钮放大地图;点击带横线的绿色按钮缩小地图;或者点击绿色箭头查看邻近地区的地图。


METAR-TAF: